Time;durP1;ratioP1;P1;durP2;ratioP2;P2;SDS_P1;SDS_P2;PMS_P1;PMS_P2;Temp;Humidity;BMP_temperature;BMP_pressure;BME280_temperature;BME280_humidity;BME280_pressure;Samples;Min_cycle;Max_cycle;Signal;HPM_P1;HPM_P2
2022/07/25 00:01:11;;;;;;;0.30;0.30;;;21.50;99.90;;;;;;4926584;28;20174;-82
2022/07/25 00:03:37;;;;;;;0.30;0.30;;;21.60;99.90;;;;;;4926905;28;20576;-82
2022/07/25 00:06:03;;;;;;;0.30;0.30;;;21.50;99.90;;;;;;4907630;28;20054;-81
2022/07/25 00:08:29;;;;;;;0.30;0.30;;;21.40;99.90;;;;;;4927766;28;20051;-82
2022/07/25 00:10:54;;;;;;;0.30;0.30;;;21.40;99.90;;;;;;4902259;28;20792;-82
2022/07/25 00:13:20;;;;;;;0.30;0.30;;;21.40;99.90;;;;;;4895756;28;20642;-82
2022/07/25 00:15:46;;;;;;;0.30;0.30;;;21.30;99.90;;;;;;4909261;28;20602;-83
2022/07/25 00:18:17;;;;;;;0.30;0.30;;;21.20;99.90;;;;;;4895857;28;20485;-82
2022/07/25 00:20:44;;;;;;;0.30;0.30;;;21.20;99.90;;;;;;4929717;28;20077;-81
2022/07/25 00:23:09;;;;;;;0.22;0.22;;;21.20;99.90;;;;;;4917451;28;20585;-81
2022/07/25 00:25:35;;;;;;;0.30;0.30;;;21.40;99.90;;;;;;4907223;28;20061;-81
2022/07/25 00:28:01;;;;;;;0.30;0.30;;;21.50;99.90;;;;;;4914219;28;20130;-82
2022/07/25 00:30:27;;;;;;;0.30;0.30;;;21.40;99.90;;;;;;4912879;28;20116;-82
2022/07/25 00:32:53;;;;;;;0.30;0.30;;;21.30;99.90;;;;;;4912428;28;20522;-81
2022/07/25 00:35:19;;;;;;;0.30;0.30;;;21.20;99.90;;;;;;4911064;28;20114;-81
2022/07/25 00:37:45;;;;;;;0.30;0.30;;;21.20;99.90;;;;;;4901264;28;20133;-82
2022/07/25 00:40:11;;;;;;;0.30;0.30;;;21.20;99.90;;;;;;4931942;28;20061;-81
2022/07/25 00:42:37;;;;;;;0.30;0.30;;;21.20;99.90;;;;;;4929696;28;21123;-81
2022/07/25 00:45:21;;;;;;;0.70;0.30;;;21.20;99.90;;;;;;4906155;28;20050;-81
2022/07/25 00:47:47;;;;;;;;;;;21.20;99.90;;;;;;4906329;28;20058;-81
2022/07/25 00:50:13;;;;;;;0.30;0.30;;;21.20;99.90;;;;;;4907003;28;19925;-81
2022/07/25 00:52:39;;;;;;;0.30;0.30;;;21.20;99.90;;;;;;4910285;28;20053;-82
2022/07/25 00:55:05;;;;;;;0.30;0.30;;;21.10;99.90;;;;;;4907217;28;20054;-81
2022/07/25 00:57:31;;;;;;;0.30;0.30;;;21.00;99.90;;;;;;4909251;28;20137;-81
2022/07/25 00:59:57;;;;;;;0.35;0.35;;;21.10;99.90;;;;;;4905494;28;20057;-81
2022/07/25 01:02:23;;;;;;;0.30;0.30;;;21.10;99.90;;;;;;4918645;28;20049;-82
2022/07/25 01:04:49;;;;;;;0.30;0.30;;;21.00;99.90;;;;;;4923940;28;20090;-81
2022/07/25 01:07:16;;;;;;;0.30;0.30;;;21.10;99.90;;;;;;4915811;28;20428;-82
2022/07/25 01:09:41;;;;;;;0.30;0.30;;;21.10;99.90;;;;;;4910132;28;20050;-82
2022/07/25 01:12:07;;;;;;;0.30;0.30;;;21.00;99.90;;;;;;4924041;28;20042;-81
2022/07/25 01:14:33;;;;;;;0.30;0.30;;;20.90;99.90;;;;;;4932411;28;20655;-81
2022/07/25 01:16:59;;;;;;;0.30;0.30;;;20.80;99.90;;;;;;4919202;28;20077;-81
2022/07/25 01:19:25;;;;;;;0.30;0.30;;;20.70;99.90;;;;;;4905772;28;20042;-81
2022/07/25 01:21:50;;;;;;;0.30;0.30;;;20.70;99.90;;;;;;4917356;28;20116;-81
2022/07/25 01:24:16;;;;;;;0.30;0.30;;;20.60;99.90;;;;;;4918494;28;20046;-81
2022/07/25 01:26:42;;;;;;;0.30;0.30;;;20.70;99.90;;;;;;4917849;28;20046;-81
2022/07/25 01:29:08;;;;;;;0.30;0.30;;;20.60;99.90;;;;;;4916164;28;21216;-81
2022/07/25 01:31:34;;;;;;;0.30;0.30;;;20.60;99.90;;;;;;4910876;28;20046;-81
2022/07/25 01:33:59;;;;;;;0.30;0.30;;;20.50;99.90;;;;;;4920499;28;20047;-81
2022/07/25 01:36:25;;;;;;;0.30;0.30;;;20.50;99.90;;;;;;4920445;28;20047;-81
2022/07/25 01:38:51;;;;;;;0.30;0.30;;;20.50;99.90;;;;;;4918030;28;20213;-81
2022/07/25 01:41:17;;;;;;;0.30;0.30;;;20.40;99.90;;;;;;4939817;28;20530;-82
2022/07/25 01:43:43;;;;;;;0.30;0.30;;;20.30;99.90;;;;;;4939498;28;20445;-81
2022/07/25 01:46:09;;;;;;;0.30;0.30;;;20.10;99.90;;;;;;4935209;28;20375;-82
2022/07/25 01:48:35;;;;;;;0.30;0.30;;;20.00;99.90;;;;;;4951249;28;20050;-82
2022/07/25 01:51:01;;;;;;;0.20;0.20;;;20.00;99.90;;;;;;4920083;28;20457;-82
2022/07/25 01:53:27;;;;;;;0.40;0.40;;;19.90;99.90;;;;;;4936932;28;20049;-83
2022/07/25 01:55:52;;;;;;;0.30;0.30;;;19.90;99.90;;;;;;4909439;28;20524;-83
2022/07/25 01:58:18;;;;;;;0.40;0.40;;;20.00;99.90;;;;;;4923561;28;20193;-82
2022/07/25 02:00:44;;;;;;;0.30;0.30;;;19.90;99.90;;;;;;4909087;28;20055;-82
2022/07/25 02:05:54;;;;;;;;;;;20.00;99.90;;;;;;4924005;28;20059;-83
2022/07/25 02:08:20;;;;;;;0.30;0.30;;;20.00;99.90;;;;;;4921473;28;20207;-82
2022/07/25 02:10:46;;;;;;;0.30;0.30;;;19.90;99.90;;;;;;4922383;28;20050;-82
2022/07/25 02:13:12;;;;;;;0.30;0.30;;;19.90;99.90;;;;;;4905222;28;20062;-82
2022/07/25 02:15:37;;;;;;;0.30;0.30;;;19.80;99.90;;;;;;4912364;28;20867;-83
2022/07/25 02:18:03;;;;;;;0.30;0.30;;;19.70;99.90;;;;;;4927370;28;20046;-82
2022/07/25 02:20:29;;;;;;;0.30;0.30;;;19.60;99.90;;;;;;4934405;28;20116;-83
2022/07/25 02:22:55;;;;;;;0.30;0.30;;;19.60;99.90;;;;;;4936617;28;20058;-82
2022/07/25 02:25:21;;;;;;;0.30;0.30;;;19.60;99.90;;;;;;4931871;28;20462;-82
2022/07/25 02:27:46;;;;;;;0.30;0.30;;;19.70;99.90;;;;;;4936713;28;20391;-82
2022/07/25 02:30:13;;;;;;;0.30;0.30;;;19.60;99.90;;;;;;4917648;28;20048;-82
2022/07/25 02:32:39;;;;;;;0.30;0.30;;;19.60;99.90;;;;;;4933288;28;20050;-81
2022/07/25 02:35:06;;;;;;;0.30;0.30;;;19.60;99.90;;;;;;4925047;28;20047;-82
2022/07/25 02:37:31;;;;;;;0.30;0.30;;;19.60;99.90;;;;;;4914103;28;20046;-82
2022/07/25 02:39:57;;;;;;;0.30;0.30;;;19.60;99.90;;;;;;4922382;28;20114;-81
2022/07/25 02:42:23;;;;;;;0.30;0.30;;;19.60;99.90;;;;;;4908648;28;20405;-82
2022/07/25 02:44:49;;;;;;;0.30;0.30;;;19.50;99.90;;;;;;4936708;28;20062;-83
2022/07/25 02:47:15;;;;;;;0.30;0.30;;;19.40;99.90;;;;;;4926026;28;20487;-82
2022/07/25 02:49:41;;;;;;;0.30;0.30;;;19.30;99.90;;;;;;4942837;28;20808;-82
2022/07/25 02:52:07;;;;;;;0.30;0.30;;;19.30;99.90;;;;;;4923250;28;20050;-82
2022/07/25 02:54:32;;;;;;;0.30;0.30;;;19.20;99.90;;;;;;4925615;28;20054;-82
2022/07/25 02:56:58;;;;;;;0.30;0.30;;;19.30;99.90;;;;;;4941072;28;20072;-82
2022/07/25 02:59:24;;;;;;;0.30;0.30;;;19.30;99.90;;;;;;4929439;28;20054;-82
2022/07/25 03:01:51;;;;;;;0.30;0.30;;;19.20;99.90;;;;;;4930539;28;20051;-82
2022/07/25 03:04:17;;;;;;;0.30;0.30;;;19.20;99.90;;;;;;4909686;28;20136;-82
2022/07/25 03:06:42;;;;;;;0.30;0.30;;;19.20;99.90;;;;;;4922584;28;20129;-82
2022/07/25 03:09:08;;;;;;;0.22;0.22;;;19.20;99.90;;;;;;4924786;28;20053;-82
2022/07/25 03:11:34;;;;;;;0.30;0.30;;;19.10;99.90;;;;;;4927268;28;20058;-82
2022/07/25 03:14:00;;;;;;;0.30;0.30;;;19.10;99.90;;;;;;4919756;28;20043;-82
2022/07/25 03:16:26;;;;;;;0.30;0.30;;;19.10;99.90;;;;;;4922147;28;20615;-82
2022/07/25 03:18:52;;;;;;;0.30;0.30;;;19.10;99.90;;;;;;4903820;28;20133;-83
2022/07/25 03:21:18;;;;;;;0.30;0.30;;;19.10;99.90;;;;;;4917861;28;20058;-82
2022/07/25 03:23:43;;;;;;;0.30;0.30;;;19.20;99.90;;;;;;4935530;28;20356;-82
2022/07/25 03:26:09;;;;;;;0.30;0.30;;;19.20;99.90;;;;;;4922486;28;20108;-81
2022/07/25 03:28:35;;;;;;;0.32;0.32;;;19.30;99.90;;;;;;4921896;28;20053;-82
2022/07/25 03:31:01;;;;;;;0.30;0.30;;;19.20;99.90;;;;;;4923354;28;21014;-83
2022/07/25 03:33:27;;;;;;;0.30;0.30;;;19.30;99.90;;;;;;4921865;28;20128;-83
2022/07/25 03:35:53;;;;;;;0.30;0.30;;;19.30;99.90;;;;;;4907740;28;20490;-81
2022/07/25 03:38:19;;;;;;;0.30;0.30;;;19.30;99.90;;;;;;4933207;28;20473;-81
2022/07/25 03:40:44;;;;;;;0.30;0.30;;;19.30;99.90;;;;;;4920579;28;20046;-81
2022/07/25 03:43:12;;;;;;;0.30;0.30;;;19.20;99.90;;;;;;4906774;28;20812;-81
2022/07/25 03:45:38;;;;;;;0.30;0.30;;;19.30;99.90;;;;;;4939535;28;20544;-81
2022/07/25 03:48:04;;;;;;;0.30;0.30;;;19.30;99.90;;;;;;4921170;28;20069;-81
2022/07/25 03:50:30;;;;;;;0.30;0.30;;;19.30;99.90;;;;;;4923804;28;20050;-81
2022/07/25 03:52:55;;;;;;;0.30;0.30;;;19.30;99.90;;;;;;4919144;28;20051;-82
2022/07/25 03:55:21;;;;;;;0.30;0.30;;;19.20;99.90;;;;;;4933551;28;20038;-82
2022/07/25 03:57:47;;;;;;;0.75;0.70;;;19.00;99.90;;;;;;4936655;28;20159;-81
2022/07/25 04:00:13;;;;;;;0.30;0.30;;;19.00;99.90;;;;;;4918652;28;20050;-81
2022/07/25 04:02:39;;;;;;;0.30;0.30;;;19.00;99.90;;;;;;4919541;28;20187;-82
2022/07/25 04:05:06;;;;;;;0.30;0.30;;;19.00;99.90;;;;;;4918162;28;20120;-83
2022/07/25 04:07:32;;;;;;;0.30;0.30;;;18.80;99.90;;;;;;4929162;28;20050;-81
2022/07/25 04:09:58;;;;;;;0.30;0.30;;;18.90;99.90;;;;;;4904051;28;20057;-82
2022/07/25 04:12:26;;;;;;;0.30;0.30;;;18.90;99.90;;;;;;4935587;28;20903;-82
2022/07/25 04:14:52;;;;;;;0.30;0.30;;;18.80;99.90;;;;;;4922847;28;20082;-82
2022/07/25 04:17:18;;;;;;;0.28;0.28;;;18.80;99.90;;;;;;4922868;28;20051;-80
2022/07/25 04:19:43;;;;;;;0.30;0.30;;;18.80;99.90;;;;;;4921026;28;20051;-82
2022/07/25 04:22:09;;;;;;;0.30;0.30;;;18.80;99.90;;;;;;4929060;28;20050;-82
2022/07/25 04:24:35;;;;;;;0.30;0.30;;;18.80;99.90;;;;;;4925449;28;20046;-82
2022/07/25 04:27:01;;;;;;;0.35;0.35;;;18.80;99.90;;;;;;4921014;28;20145;-82
2022/07/25 04:29:26;;;;;;;0.30;0.30;;;18.90;99.90;;;;;;4920885;28;20117;-81
2022/07/25 04:31:52;;;;;;;0.30;0.30;;;18.90;99.90;;;;;;4921484;28;20153;-82
2022/07/25 04:34:19;;;;;;;0.30;0.30;;;18.90;99.90;;;;;;4902217;28;20050;-82
2022/07/25 04:36:45;;;;;;;0.30;0.30;;;18.90;99.90;;;;;;4921099;28;20057;-81
2022/07/25 04:39:11;;;;;;;0.30;0.30;;;19.00;99.90;;;;;;4917396;28;20050;-82
2022/07/25 04:41:36;;;;;;;0.30;0.30;;;19.10;99.90;;;;;;4917580;28;20121;-82
2022/07/25 04:44:02;;;;;;;0.30;0.30;;;19.20;99.90;;;;;;4920397;28;20050;-81
2022/07/25 04:46:28;;;;;;;0.30;0.30;;;19.20;99.90;;;;;;4922339;28;20067;-81
2022/07/25 04:48:54;;;;;;;0.30;0.30;;;19.40;99.90;;;;;;4916566;28;20051;-81
2022/07/25 04:51:20;;;;;;;0.30;0.30;;;19.50;99.90;;;;;;4933691;28;20054;-81
2022/07/25 04:53:46;;;;;;;0.30;0.30;;;20.00;99.90;;;;;;4919285;28;20051;-82
2022/07/25 04:56:12;;;;;;;0.30;0.30;;;20.30;99.90;;;;;;4913148;28;20051;-82
2022/07/25 04:58:37;;;;;;;0.30;0.30;;;20.20;99.90;;;;;;4919817;28;20247;-80
2022/07/25 05:01:03;;;;;;;0.30;0.30;;;20.20;99.90;;;;;;4916031;28;20050;-82
2022/07/25 05:03:29;;;;;;;0.30;0.30;;;20.60;99.90;;;;;;4917714;28;20183;-81
2022/07/25 05:05:55;;;;;;;0.30;0.30;;;21.10;99.90;;;;;;4922094;28;20058;-81
2022/07/25 05:08:20;;;;;;;0.30;0.30;;;21.20;99.90;;;;;;4926976;28;20241;-82
2022/07/25 05:10:46;;;;;;;0.30;0.30;;;20.90;99.90;;;;;;4931203;28;20577;-82
2022/07/25 05:13:12;;;;;;;0.30;0.30;;;21.00;99.90;;;;;;4931848;28;20051;-81
2022/07/25 05:15:38;;;;;;;0.30;0.30;;;21.40;99.90;;;;;;4931899;28;20047;-79
2022/07/25 05:18:04;;;;;;;0.30;0.30;;;21.40;99.90;;;;;;4928550;28;20047;-82
2022/07/25 05:20:30;;;;;;;0.30;0.30;;;22.00;99.90;;;;;;4930621;28;20110;-82
2022/07/25 05:22:56;;;;;;;0.30;0.30;;;22.70;99.90;;;;;;4924154;28;20055;-82
2022/07/25 05:25:22;;;;;;;0.30;0.30;;;22.20;99.90;;;;;;4927561;28;20054;-82
2022/07/25 05:27:48;;;;;;;0.20;0.20;;;22.10;99.90;;;;;;4935134;28;20465;-81
2022/07/25 05:30:14;;;;;;;0.30;0.30;;;22.40;99.90;;;;;;4931318;28;20051;-81
2022/07/25 05:32:42;;;;;;;0.30;0.30;;;22.70;99.90;;;;;;4931007;28;20129;-81
2022/07/25 05:35:09;;;;;;;0.30;0.30;;;23.60;99.90;;;;;;4927153;28;20109;-81
2022/07/25 05:37:36;;;;;;;0.30;0.30;;;24.20;99.90;;;;;;4911548;28;20111;-82
2022/07/25 05:40:03;;;;;;;0.30;0.30;;;24.80;99.90;;;;;;4928937;28;20057;-82
2022/07/25 05:42:29;;;;;;;0.30;0.30;;;24.80;99.90;;;;;;4926017;28;20574;-82
2022/07/25 05:44:55;;;;;;;0.30;0.30;;;25.00;99.90;;;;;;4932269;28;20062;-82
2022/07/25 05:47:21;;;;;;;0.30;0.30;;;26.30;99.90;;;;;;4925853;28;20062;-81
2022/07/25 05:49:47;;;;;;;0.20;0.20;;;26.70;99.90;;;;;;4949431;28;20077;-84
2022/07/25 05:52:13;;;;;;;0.30;0.30;;;27.80;99.90;;;;;;4929853;28;20050;-84
2022/07/25 05:54:38;;;;;;;0.30;0.30;;;27.10;99.90;;;;;;4915276;28;20051;-84
2022/07/25 05:57:04;;;;;;;0.20;0.20;;;26.60;99.90;;;;;;4949283;28;20714;-83
2022/07/25 05:59:30;;;;;;;0.20;0.20;;;25.90;99.90;;;;;;4913121;28;20127;-82
2022/07/25 06:01:56;;;;;;;0.20;0.20;;;25.60;99.90;;;;;;4931148;28;20050;-81
2022/07/25 06:04:22;;;;;;;0.20;0.20;;;25.20;99.90;;;;;;4930516;28;20129;-82
2022/07/25 06:06:50;;;;;;;0.20;0.20;;;24.80;99.90;;;;;;4922742;28;20550;-82
2022/07/25 06:09:22;;;;;;;0.20;0.20;;;25.30;99.90;;;;;;4905725;28;20042;-82
2022/07/25 06:11:49;;;;;;;0.43;0.30;;;25.30;99.90;;;;;;4918092;28;20072;-82
2022/07/25 06:14:15;;;;;;;0.20;0.20;;;24.80;99.90;;;;;;4939347;28;20821;-81
2022/07/25 06:16:41;;;;;;;0.30;0.30;;;24.70;99.90;;;;;;4932781;28;20516;-82
2022/07/25 06:19:07;;;;;;;0.20;0.20;;;24.80;99.90;;;;;;4932031;28;20051;-82
2022/07/25 06:21:33;;;;;;;0.20;0.20;;;25.20;99.90;;;;;;4935708;28;20046;-83
2022/07/25 06:23:58;;;;;;;0.30;0.30;;;25.20;99.90;;;;;;4932478;28;20061;-82
2022/07/25 06:26:26;;;;;;;0.20;0.20;;;25.50;99.90;;;;;;4932042;28;21082;-81
2022/07/25 06:28:51;;;;;;;0.30;0.30;;;25.90;99.90;;;;;;4918498;28;20069;-81
2022/07/25 06:31:17;;;;;;;0.30;0.30;;;26.00;99.90;;;;;;4934896;28;20066;-81
2022/07/25 06:33:43;;;;;;;0.30;0.30;;;25.90;99.90;;;;;;4935377;28;20043;-80
2022/07/25 06:36:09;;;;;;;0.20;0.20;;;25.70;99.90;;;;;;4951722;28;20649;-81
2022/07/25 06:38:35;;;;;;;0.30;0.30;;;26.00;99.90;;;;;;4937422;28;20160;-80
2022/07/25 06:41:01;;;;;;;0.20;0.20;;;26.50;99.90;;;;;;4954608;28;20084;-79
2022/07/25 06:43:27;;;;;;;0.25;0.25;;;26.40;99.90;;;;;;4936154;28;20121;-79
2022/07/25 06:45:53;;;;;;;0.30;0.30;;;26.80;99.90;;;;;;4926674;28;20749;-80
2022/07/25 06:48:19;;;;;;;0.20;0.20;;;26.60;99.90;;;;;;4929171;28;20055;-80
2022/07/25 06:50:45;;;;;;;0.20;0.20;;;26.50;99.90;;;;;;4928188;28;20059;-79
2022/07/25 06:53:11;;;;;;;0.20;0.20;;;26.60;99.90;;;;;;4940728;28;20049;-80
2022/07/25 06:55:37;;;;;;;0.30;0.30;;;26.60;99.90;;;;;;4933756;28;20063;-80
2022/07/25 06:58:03;;;;;;;0.30;0.30;;;26.50;99.90;;;;;;4944936;28;20729;-82
2022/07/25 07:00:28;;;;;;;0.30;0.30;;;26.40;99.90;;;;;;4928185;28;21058;-80
2022/07/25 07:03:00;;;;;;;0.30;0.30;;;26.70;99.90;;;;;;4932485;28;20051;-80
2022/07/25 07:05:31;;;;;;;0.20;0.20;;;26.80;99.90;;;;;;4931830;28;20047;-80
2022/07/25 07:07:57;;;;;;;0.30;0.30;;;27.00;99.90;;;;;;4932306;28;20118;-80
2022/07/25 07:10:24;;;;;;;0.20;0.20;;;27.20;99.90;;;;;;4916211;28;20799;-81
2022/07/25 07:13:00;;;;;;;0.20;0.20;;;27.30;99.90;;;;;;4931052;28;20588;-80
2022/07/25 07:15:26;;;;;;;0.30;0.30;;;27.30;99.90;;;;;;4928850;28;20114;-80
2022/07/25 07:17:53;;;;;;;0.20;0.20;;;27.40;99.90;;;;;;4932645;28;20062;-79
2022/07/25 07:20:19;;;;;;;0.20;0.20;;;27.40;99.90;;;;;;4933345;28;20089;-78
2022/07/25 07:22:46;;;;;;;0.20;0.20;;;27.70;99.90;;;;;;4933420;28;20793;-80
2022/07/25 07:25:16;;;;;;;0.35;0.35;;;27.70;99.90;;;;;;4935667;28;20417;-83
2022/07/25 07:27:43;;;;;;;0.20;0.20;;;27.60;99.90;;;;;;4931400;28;20055;-80
2022/07/25 07:30:10;;;;;;;0.20;0.20;;;27.60;99.90;;;;;;4927322;28;20046;-81
2022/07/25 07:32:36;;;;;;;0.20;0.20;;;27.50;99.90;;;;;;4931483;28;20057;-80
2022/07/25 07:35:02;;;;;;;0.20;0.20;;;27.60;99.90;;;;;;4930307;28;20047;-81
2022/07/25 07:37:28;;;;;;;0.20;0.20;;;28.00;99.90;;;;;;4932489;28;20049;-81
2022/07/25 07:39:54;;;;;;;0.30;0.30;;;28.10;99.90;;;;;;4929918;28;20055;-78
2022/07/25 07:42:19;;;;;;;0.20;0.20;;;28.40;99.90;;;;;;4932506;28;20094;-81
2022/07/25 07:44:45;;;;;;;0.20;0.20;;;28.50;99.90;;;;;;4919275;28;20079;-79
2022/07/25 07:47:11;;;;;;;0.20;0.20;;;28.60;99.90;;;;;;4931900;28;20137;-81
2022/07/25 07:49:37;;;;;;;0.20;0.20;;;28.60;99.90;;;;;;4931930;28;20419;-79
2022/07/25 07:52:03;;;;;;;0.20;0.20;;;28.60;99.90;;;;;;4937411;28;20042;-80
2022/07/25 07:57:13;;;;;;;0.20;0.20;;;28.50;99.90;;;;;;4938343;28;20050;-81
2022/07/25 07:59:39;;;;;;;0.30;0.30;;;28.80;99.90;;;;;;4930086;28;20245;-81
2022/07/25 08:02:05;;;;;;;0.20;0.20;;;28.60;99.90;;;;;;4915027;28;21040;-80
2022/07/25 08:04:31;;;;;;;0.20;0.20;;;28.70;99.90;;;;;;4938286;28;20062;-79
2022/07/25 08:06:56;;;;;;;0.20;0.20;;;28.50;99.90;;;;;;4933637;28;20100;-79
2022/07/25 08:09:24;;;;;;;0.20;0.20;;;28.70;99.90;;;;;;4922022;28;20176;-83
2022/07/25 08:11:51;;;;;;;0.20;0.20;;;28.60;99.90;;;;;;4922135;28;20128;-80
2022/07/25 08:14:17;;;;;;;0.20;0.20;;;28.50;99.90;;;;;;4934854;28;20086;-80
2022/07/25 08:16:43;;;;;;;0.20;0.20;;;28.10;99.90;;;;;;4949814;28;20209;-81
2022/07/25 08:19:09;;;;;;;0.20;0.20;;;27.60;99.90;;;;;;4950510;28;20113;-79
2022/07/25 08:21:34;;;;;;;0.20;0.20;;;27.30;99.90;;;;;;4926519;28;20050;-79
2022/07/25 08:24:00;;;;;;;0.25;0.25;;;27.30;99.90;;;;;;4951865;28;20448;-79
2022/07/25 08:26:26;;;;;;;0.20;0.20;;;27.10;99.90;;;;;;4917545;28;20046;-79
2022/07/25 08:28:53;;;;;;;0.20;0.20;;;27.00;99.90;;;;;;4927919;28;20124;-79
2022/07/25 08:31:18;;;;;;;0.20;0.20;;;26.80;99.90;;;;;;4922413;28;20136;-81
2022/07/25 08:33:44;;;;;;;0.30;0.30;;;26.80;99.90;;;;;;4943437;28;20134;-78
2022/07/25 08:36:10;;;;;;;0.20;0.20;;;26.40;99.90;;;;;;4930535;28;20047;-79
2022/07/25 08:38:36;;;;;;;0.20;0.20;;;26.50;99.90;;;;;;4954826;28;20050;-81
2022/07/25 08:41:02;;;;;;;0.20;0.20;;;26.30;99.90;;;;;;4951690;28;20053;-79
2022/07/25 08:43:31;;;;;;;0.20;0.20;;;26.30;99.90;;;;;;4946398;28;20118;-80
2022/07/25 08:46:00;;;;;;;0.20;0.20;;;26.20;99.90;;;;;;4936236;28;20059;-80
2022/07/25 08:48:26;;;;;;;0.20;0.20;;;26.20;99.90;;;;;;4956526;28;20674;-80
2022/07/25 08:50:55;;;;;;;0.20;0.20;;;26.20;99.90;;;;;;4935328;28;20232;-82
2022/07/25 08:53:21;;;;;;;0.20;0.20;;;26.10;99.90;;;;;;4934760;28;21186;-81
2022/07/25 08:55:47;;;;;;;0.20;0.20;;;26.10;99.90;;;;;;4938055;28;20054;-82
2022/07/25 08:58:15;;;;;;;0.30;0.30;;;26.20;99.90;;;;;;4932555;28;20047;-80
2022/07/25 09:00:41;;;;;;;0.30;0.30;;;26.00;99.90;;;;;;4950362;28;20227;-80
2022/07/25 09:03:07;;;;;;;0.30;0.30;;;26.00;99.90;;;;;;4918839;28;20557;-80
2022/07/25 09:05:34;;;;;;;0.20;0.20;;;25.90;99.90;;;;;;4919724;28;20057;-80
2022/07/25 09:08:16;;;;;;;0.20;0.20;;;26.00;99.90;;;;;;4935926;28;20177;-81
2022/07/25 09:10:50;;;;;;;0.25;0.25;;;26.30;99.90;;;;;;4920817;28;20055;-80
2022/07/25 09:13:17;;;;;;;0.20;0.20;;;26.20;99.90;;;;;;4934688;28;20078;-80
2022/07/25 09:15:47;;;;;;;0.20;0.20;;;26.10;99.90;;;;;;4937988;28;20982;-80
2022/07/25 09:18:15;;;;;;;0.22;0.22;;;26.10;99.90;;;;;;4953689;28;20042;-79
2022/07/25 09:20:43;;;;;;;0.30;0.30;;;26.00;99.90;;;;;;4937375;28;20059;-79
2022/07/25 09:23:15;;;;;;;0.20;0.20;;;25.70;99.90;;;;;;4928012;28;20050;-80
2022/07/25 09:25:41;;;;;;;0.20;0.20;;;25.60;99.90;;;;;;4930378;28;20165;-80
2022/07/25 09:28:12;;;;;;;0.20;0.20;;;25.40;99.90;;;;;;4953423;28;20150;-80
2022/07/25 09:30:39;;;;;;;0.20;0.20;;;25.20;99.90;;;;;;4932516;28;20343;-80
2022/07/25 09:33:04;;;;;;;0.20;0.20;;;25.30;99.90;;;;;;4929702;28;20058;-80
2022/07/25 09:35:32;;;;;;;0.22;0.22;;;25.40;99.90;;;;;;4953898;28;20043;-79
2022/07/25 09:38:12;;;;;;;0.30;0.30;;;25.40;99.90;;;;;;4954882;28;20765;-78
2022/07/25 09:40:39;;;;;;;0.20;0.20;;;25.70;99.90;;;;;;4933464;28;20563;-80
2022/07/25 09:43:05;;;;;;;0.20;0.20;;;25.90;99.90;;;;;;4898333;28;20098;-77
2022/07/25 09:45:31;;;;;;;0.28;0.28;;;26.10;99.90;;;;;;4917644;28;20089;-80
2022/07/25 09:48:00;;;;;;;0.30;0.30;;;26.10;99.90;;;;;;4950418;28;20450;-80
2022/07/25 09:50:28;;;;;;;0.20;0.20;;;26.50;99.90;;;;;;4950702;28;20141;-80
2022/07/25 09:52:55;;;;;;;0.20;0.20;;;27.00;99.90;;;;;;4917795;28;20054;-81
2022/07/25 09:55:22;;;;;;;0.20;0.20;;;27.10;99.90;;;;;;4953959;28;20054;-81
2022/07/25 09:57:49;;;;;;;0.20;0.20;;;26.80;99.90;;;;;;4936349;28;20474;-79
2022/07/25 10:00:22;;;;;;;0.20;0.20;;;26.60;99.90;;;;;;4955641;28;20054;-80
2022/07/25 10:02:54;;;;;;;0.28;0.28;;;26.60;99.90;;;;;;4954659;28;20141;-80
2022/07/25 10:05:22;;;;;;;0.20;0.20;;;26.70;99.90;;;;;;4939162;28;20057;-80
2022/07/25 10:07:53;;;;;;;0.20;0.20;;;26.70;99.90;;;;;;4954605;28;20050;-79
2022/07/25 10:10:36;;;;;;;0.20;0.20;;;26.70;99.90;;;;;;4935384;28;20192;-79
2022/07/25 10:13:10;;;;;;;0.30;0.30;;;26.80;99.90;;;;;;4918927;28;20051;-78
2022/07/25 10:15:44;;;;;;;0.30;0.30;;;26.70;99.90;;;;;;4933260;28;20305;-79
2022/07/25 10:18:11;;;;;;;0.30;0.30;;;26.60;99.90;;;;;;4940398;28;20046;-80
2022/07/25 10:20:37;;;;;;;0.30;0.30;;;26.50;99.90;;;;;;4938868;28;20406;-79
2022/07/25 10:23:15;;;;;;;0.30;0.30;;;26.70;99.90;;;;;;4939148;28;20046;-80
2022/07/25 10:25:41;;;;;;;0.20;0.20;;;26.50;99.90;;;;;;4956674;28;20074;-79
2022/07/25 10:28:08;;;;;;;0.20;0.20;;;26.40;99.90;;;;;;4951501;28;20137;-81
2022/07/25 10:30:39;;;;;;;0.30;0.30;;;26.20;99.90;;;;;;4940339;28;20058;-80
2022/07/25 10:33:12;;;;;;;0.30;0.30;;;26.00;99.90;;;;;;4952303;28;20113;-79
2022/07/25 10:35:38;;;;;;;0.30;0.30;;;25.90;99.90;;;;;;4954982;28;20659;-79
2022/07/25 10:38:05;;;;;;;0.20;0.20;;;25.70;99.90;;;;;;4954713;28;20453;-79
2022/07/25 10:40:43;;;;;;;0.20;0.20;;;25.40;99.90;;;;;;4936387;28;20109;-82
2022/07/25 10:43:16;;;;;;;0.30;0.30;;;25.40;99.90;;;;;;4956712;28;20053;-80
2022/07/25 10:45:47;;;;;;;0.20;0.20;;;25.30;99.90;;;;;;4935463;28;20046;-81
2022/07/25 10:48:20;;;;;;;0.30;0.30;;;26.10;99.90;;;;;;4943455;28;20050;-79
2022/07/25 10:50:49;;;;;;;0.20;0.20;;;26.70;99.90;;;;;;4926722;28;20138;-82
2022/07/25 10:53:14;;;;;;;0.20;0.20;;;27.10;99.90;;;;;;4950253;28;20705;-79
2022/07/25 10:55:40;;;;;;;0.20;0.20;;;27.30;99.90;;;;;;4923314;28;20051;-80
2022/07/25 10:58:06;;;;;;;0.28;0.28;;;28.00;99.90;;;;;;4935030;28;20134;-80
2022/07/25 11:00:33;;;;;;;0.20;0.20;;;27.70;99.90;;;;;;4947032;28;20657;-80
2022/07/25 11:03:00;;;;;;;0.20;0.20;;;27.90;99.90;;;;;;4930977;28;20043;-79
2022/07/25 11:05:27;;;;;;;0.30;0.30;;;27.80;99.90;;;;;;4940888;28;20049;-80
2022/07/25 11:07:53;;;;;;;0.20;0.20;;;27.80;99.90;;;;;;4911460;28;20061;-80
2022/07/25 11:10:26;;;;;;;0.20;0.20;;;27.60;99.90;;;;;;4935308;28;20851;-79
2022/07/25 11:12:53;;;;;;;0.20;0.20;;;27.80;99.90;;;;;;4915798;28;20073;-79
2022/07/25 11:15:23;;;;;;;0.30;0.30;;;27.50;99.90;;;;;;4902649;28;20047;-79
2022/07/25 11:17:51;;;;;;;0.20;0.20;;;27.20;99.90;;;;;;4930945;28;20050;-80
2022/07/25 11:20:18;;;;;;;0.20;0.20;;;27.00;99.90;;;;;;4941162;28;20645;-81
2022/07/25 11:22:51;;;;;;;0.25;0.25;;;27.10;99.90;;;;;;4921737;28;20507;-79
2022/07/25 11:25:21;;;;;;;0.30;0.30;;;27.10;99.90;;;;;;4915826;28;20090;-82
2022/07/25 11:27:55;;;;;;;0.20;0.20;;;27.20;99.90;;;;;;4914805;28;20552;-79
2022/07/25 11:30:21;;;;;;;0.20;0.20;;;27.20;99.90;;;;;;4949981;28;20528;-80
2022/07/25 11:32:54;;;;;;;0.20;0.20;;;26.70;99.90;;;;;;4936503;28;20046;-81
2022/07/25 11:35:27;;;;;;;0.28;0.28;;;26.60;99.90;;;;;;4952151;28;20133;-81
2022/07/25 11:37:53;;;;;;;0.20;0.20;;;26.40;99.90;;;;;;4936711;28;20141;-82
2022/07/25 11:40:21;;;;;;;0.20;0.20;;;26.40;99.90;;;;;;4952914;28;20141;-81
2022/07/25 11:42:50;;;;;;;0.30;0.30;;;26.20;99.90;;;;;;4950931;28;20085;-81
2022/07/25 11:45:22;;;;;;;0.20;0.20;;;26.20;99.90;;;;;;4955636;28;20064;-81
2022/07/25 11:48:04;;;;;;;0.25;0.25;;;26.40;99.90;;;;;;4952902;28;20895;-83
2022/07/25 11:50:31;;;;;;;0.20;0.20;;;26.30;99.90;;;;;;4932800;28;20051;-82
2022/07/25 11:53:00;;;;;;;0.28;0.28;;;26.10;99.90;;;;;;4950995;28;20173;-81
2022/07/25 11:55:29;;;;;;;0.25;0.25;;;26.10;99.90;;;;;;4935438;28;20908;-80
2022/07/25 11:57:59;;;;;;;0.20;0.20;;;26.10;99.90;;;;;;4951536;28;21368;-82
2022/07/25 12:00:25;;;;;;;0.20;0.20;;;26.30;99.90;;;;;;4955056;28;20085;-81
2022/07/25 12:02:51;;;;;;;0.30;0.30;;;26.10;99.90;;;;;;4934866;28;20070;-81
2022/07/25 12:05:30;;;;;;;0.20;0.20;;;25.90;99.90;;;;;;4934350;28;20047;-81
2022/07/25 12:07:56;;;;;;;0.20;0.20;;;25.90;99.90;;;;;;4944652;28;20794;-80
2022/07/25 12:10:33;;;;;;;0.30;0.30;;;25.80;99.90;;;;;;4942598;28;20504;-81
2022/07/25 12:13:03;;;;;;;0.20;0.20;;;25.90;99.90;;;;;;4934247;28;20046;-79
2022/07/25 12:15:37;;;;;;;0.20;0.20;;;25.90;99.90;;;;;;4935454;28;20050;-80
2022/07/25 12:18:05;;;;;;;0.20;0.20;;;25.90;99.90;;;;;;4936195;28;20042;-79
2022/07/25 12:20:37;;;;;;;0.20;0.20;;;25.80;99.90;;;;;;4932158;28;20102;-80
2022/07/25 12:23:05;;;;;;;0.20;0.20;;;25.90;99.90;;;;;;4951330;28;20149;-80
2022/07/25 12:25:32;;;;;;;0.25;0.25;;;25.90;99.90;;;;;;4933148;28;20055;-81
2022/07/25 12:27:59;;;;;;;0.25;0.25;;;25.90;99.90;;;;;;4951538;28;20457;-81
2022/07/25 12:30:27;;;;;;;0.20;0.20;;;25.90;99.90;;;;;;4918577;28;20823;-82
2022/07/25 12:32:53;;;;;;;0.20;0.20;;;26.30;99.90;;;;;;4953502;28;20065;-82
2022/07/25 12:35:19;;;;;;;0.30;0.30;;;26.40;99.90;;;;;;4934597;28;20113;-79
2022/07/25 12:37:45;;;;;;;0.28;0.28;;;26.70;99.90;;;;;;4932733;28;20078;-83
2022/07/25 12:40:13;;;;;;;0.20;0.20;;;26.70;99.90;;;;;;4933227;28;20049;-80
2022/07/25 12:42:39;;;;;;;0.20;0.20;;;26.50;99.90;;;;;;4933612;28;20054;-80
2022/07/25 12:45:06;;;;;;;0.20;0.20;;;26.30;99.90;;;;;;4948618;28;20042;-81
2022/07/25 12:47:33;;;;;;;0.30;0.30;;;26.00;99.90;;;;;;4914360;28;20062;-82
2022/07/25 12:49:59;;;;;;;0.20;0.20;;;25.80;99.90;;;;;;4935202;28;20548;-82
2022/07/25 12:52:25;;;;;;;0.20;0.20;;;25.60;99.90;;;;;;4919313;28;20053;-80